Hovedside
METAR-TAF:

METAR-TAF

Lufthavner :

Københavns lufthavn

København, Danmark

breddegrad: 55-37N, lengdegrad: 012-39E, høyde over havet: 5 m

Gjeldene værobservasjon

Denne rapporten ble laget for 18 minutter siden, klokken 15:20 UTC
Vind 11 kt fra Sørvest
Temperatur 20°C
Luftfuktighet 73%
Trykk 1012 hPa
Sikt 10 km eller mer
ingen skyer under 1500 m og ingen bygeskyer

METAR: EKCH 201520Z 23011KT CAVOK 20/15 Q1012 NOSIG

Tid: 17:38 (15:38 UTC)

Varsel

Denne rapporten ble laget for 4 timer og 43 minutter siden, klokken 10:55 UTC
Varsel gyldig fra 20. klokken 12 UTC til 21. klokken 12 UTC
Vind 12 kt fra Sør-sørvest
Sikt 10 km eller mer
Spredte skyer i en høyde av 2000 ft
Blir
fra 21. klokken 03 UTC til 21. klokken 06 UTC
Vind 20 kt fra Sør med vindkast opp mot 32 kt

TAF: EKCH 201055Z 2012/2112 21012KT 9999 SCT020 BECMG 2103/2106 17020G32KT

Værobservasjoner og værvarsel for over 4000 flyplasser (METAR- og TAF-rapporter).

Tilgjengelige stasjoner er representert av de røde og gule prikkene på kartet.

Hold musepekeren over prikken for å se navnet på stasjonen.

Klikk så for å se værobservasjoner og -varsler.

For å forandre kartet kan du klikke på den grønne knappen med svart kryss for å zoome inn, på den grønne knappen med strek for å zoome ut, eller på de grønne pilene for å se tilstøtende kart.


METAR-TAF: